sensor_id;sensor_type;location;lat;lon;timestamp;temperature;humidity
21563;DHT22;10942;47.894;11.424;2023-03-01T00:02:01;-0.10;99.90
21563;DHT22;10942;47.894;11.424;2023-03-01T00:04:27;-0.10;99.90
21563;DHT22;10942;47.894;11.424;2023-03-01T00:06:53;-0.10;99.90
21563;DHT22;10942;47.894;11.424;2023-03-01T00:09:19;0.00;99.90
21563;DHT22;10942;47.894;11.424;2023-03-01T00:11:45;0.00;99.90
21563;DHT22;10942;47.894;11.424;2023-03-01T00:14:11;-0.10;99.90
21563;DHT22;10942;47.894;11.424;2023-03-01T00:16:40;-0.10;99.90
21563;DHT22;10942;47.894;11.424;2023-03-01T00:19:08;0.00;99.90
21563;DHT22;10942;47.894;11.424;2023-03-01T00:21:35;0.00;99.90
21563;DHT22;10942;47.894;11.424;2023-03-01T00:24:01;0.00;99.90
21563;DHT22;10942;47.894;11.424;2023-03-01T00:26:28;0.10;99.90
21563;DHT22;10942;47.894;11.424;2023-03-01T00:28:54;0.00;99.90
21563;DHT22;10942;47.894;11.424;2023-03-01T00:31:23;0.00;99.90
21563;DHT22;10942;47.894;11.424;2023-03-01T00:33:54;0.00;99.90
21563;DHT22;10942;47.894;11.424;2023-03-01T00:36:30;0.00;99.90
21563;DHT22;10942;47.894;11.424;2023-03-01T00:38:56;0.00;99.90
21563;DHT22;10942;47.894;11.424;2023-03-01T00:41:23;0.00;99.90
21563;DHT22;10942;47.894;11.424;2023-03-01T00:43:50;0.00;99.90
21563;DHT22;10942;47.894;11.424;2023-03-01T00:46:18;0.00;99.90
21563;DHT22;10942;47.894;11.424;2023-03-01T00:48:45;0.00;99.90
21563;DHT22;10942;47.894;11.424;2023-03-01T00:51:25;0.00;99.90
21563;DHT22;10942;47.894;11.424;2023-03-01T00:53:53;0.00;99.90
21563;DHT22;10942;47.894;11.424;2023-03-01T00:56:19;0.00;99.90
21563;DHT22;10942;47.894;11.424;2023-03-01T00:58:45;0.00;99.90
21563;DHT22;10942;47.894;11.424;2023-03-01T01:01:18;0.00;99.90
21563;DHT22;10942;47.894;11.424;2023-03-01T01:03:48;0.00;99.90
21563;DHT22;10942;47.894;11.424;2023-03-01T01:06:34;-0.10;99.90
21563;DHT22;10942;47.894;11.424;2023-03-01T01:09:00;0.00;99.90
21563;DHT22;10942;47.894;11.424;2023-03-01T01:11:28;-0.10;99.90
21563;DHT22;10942;47.894;11.424;2023-03-01T01:13:55;0.00;99.90
21563;DHT22;10942;47.894;11.424;2023-03-01T01:16:23;-0.10;99.90
21563;DHT22;10942;47.894;11.424;2023-03-01T01:18:50;0.00;99.90
21563;DHT22;10942;47.894;11.424;2023-03-01T01:21:17;0.00;99.90
21563;DHT22;10942;47.894;11.424;2023-03-01T01:23:45;0.00;99.90
21563;DHT22;10942;47.894;11.424;2023-03-01T01:26:31;0.10;99.90
21563;DHT22;10942;47.894;11.424;2023-03-01T01:28:57;0.00;99.90
21563;DHT22;10942;47.894;11.424;2023-03-01T01:31:24;-0.10;99.90
21563;DHT22;10942;47.894;11.424;2023-03-01T01:33:51;-0.10;99.90
21563;DHT22;10942;47.894;11.424;2023-03-01T01:36:17;-0.10;99.90
21563;DHT22;10942;47.894;11.424;2023-03-01T01:38:43;0.00;99.90
21563;DHT22;10942;47.894;11.424;2023-03-01T01:41:10;-0.10;99.90
21563;DHT22;10942;47.894;11.424;2023-03-01T01:43:42;-0.10;99.90
21563;DHT22;10942;47.894;11.424;2023-03-01T01:48:55;-0.10;99.90
21563;DHT22;10942;47.894;11.424;2023-03-01T01:51:25;-0.10;99.90
21563;DHT22;10942;47.894;11.424;2023-03-01T01:53:59;-0.10;99.90
21563;DHT22;10942;47.894;11.424;2023-03-01T01:56:27;-0.10;99.90
21563;DHT22;10942;47.894;11.424;2023-03-01T01:58:54;-0.10;99.90
21563;DHT22;10942;47.894;11.424;2023-03-01T02:01:20;-0.10;99.90
21563;DHT22;10942;47.894;11.424;2023-03-01T02:03:46;-0.10;99.90
21563;DHT22;10942;47.894;11.424;2023-03-01T02:06:34;0.00;99.90
21563;DHT22;10942;47.894;11.424;2023-03-01T02:09:06;0.00;99.90
21563;DHT22;10942;47.894;11.424;2023-03-01T02:11:33;-0.10;99.90
21563;DHT22;10942;47.894;11.424;2023-03-01T02:14:00;-0.10;99.90
21563;DHT22;10942;47.894;11.424;2023-03-01T02:16:26;-0.10;99.90
21563;DHT22;10942;47.894;11.424;2023-03-01T02:18:52;-0.10;99.90
21563;DHT22;10942;47.894;11.424;2023-03-01T02:26:50;0.00;99.90
21563;DHT22;10942;47.894;11.424;2023-03-01T02:29:16;-0.10;99.90
21563;DHT22;10942;47.894;11.424;2023-03-01T02:31:42;-0.10;99.90
21563;DHT22;10942;47.894;11.424;2023-03-01T02:34:17;-0.10;99.90
21563;DHT22;10942;47.894;11.424;2023-03-01T02:36:48;-0.10;99.90
21563;DHT22;10942;47.894;11.424;2023-03-01T02:39:21;0.00;99.90
21563;DHT22;10942;47.894;11.424;2023-03-01T02:41:50;-0.10;99.90
21563;DHT22;10942;47.894;11.424;2023-03-01T02:44:17;-0.10;99.90
21563;DHT22;10942;47.894;11.424;2023-03-01T02:46:52;-0.10;99.90
21563;DHT22;10942;47.894;11.424;2023-03-01T02:49:30;-0.10;99.90
21563;DHT22;10942;47.894;11.424;2023-03-01T02:54:52;-0.10;99.90
21563;DHT22;10942;47.894;11.424;2023-03-01T02:57:21;-0.10;99.90
21563;DHT22;10942;47.894;11.424;2023-03-01T02:59:48;-0.10;99.90
21563;DHT22;10942;47.894;11.424;2023-03-01T03:02:28;-0.10;99.90
21563;DHT22;10942;47.894;11.424;2023-03-01T03:05:17;-0.10;99.90
21563;DHT22;10942;47.894;11.424;2023-03-01T03:07:45;-0.20;99.90
21563;DHT22;10942;47.894;11.424;2023-03-01T03:10:17;-0.10;99.90
21563;DHT22;10942;47.894;11.424;2023-03-01T03:12:49;-0.20;99.90
21563;DHT22;10942;47.894;11.424;2023-03-01T03:15:15;-0.10;99.90
21563;DHT22;10942;47.894;11.424;2023-03-01T03:17:42;-0.10;99.90
21563;DHT22;10942;47.894;11.424;2023-03-01T03:20:10;-0.20;99.90
21563;DHT22;10942;47.894;11.424;2023-03-01T03:22:40;-0.20;99.90
21563;DHT22;10942;47.894;11.424;2023-03-01T03:25:07;-0.20;99.90
21563;DHT22;10942;47.894;11.424;2023-03-01T03:27:41;-0.30;99.90
21563;DHT22;10942;47.894;11.424;2023-03-01T03:30:11;-0.20;99.90
21563;DHT22;10942;47.894;11.424;2023-03-01T03:32:41;-0.20;99.90
21563;DHT22;10942;47.894;11.424;2023-03-01T03:35:09;-0.20;99.90
21563;DHT22;10942;47.894;11.424;2023-03-01T03:37:39;-0.20;99.90
21563;DHT22;10942;47.894;11.424;2023-03-01T03:40:24;-0.20;99.90
21563;DHT22;10942;47.894;11.424;2023-03-01T03:42:49;-0.10;99.90
21563;DHT22;10942;47.894;11.424;2023-03-01T03:45:16;-0.10;99.90
21563;DHT22;10942;47.894;11.424;2023-03-01T03:47:43;-0.20;99.90
21563;DHT22;10942;47.894;11.424;2023-03-01T03:50:11;-0.20;99.90
21563;DHT22;10942;47.894;11.424;2023-03-01T03:52:36;-0.30;99.90
21563;DHT22;10942;47.894;11.424;2023-03-01T03:55:03;-0.20;99.90
21563;DHT22;10942;47.894;11.424;2023-03-01T03:57:29;-0.20;99.90
21563;DHT22;10942;47.894;11.424;2023-03-01T03:59:54;-0.20;99.90
21563;DHT22;10942;47.894;11.424;2023-03-01T04:02:20;-0.30;99.90
21563;DHT22;10942;47.894;11.424;2023-03-01T04:04:50;-0.30;99.90
21563;DHT22;10942;47.894;11.424;2023-03-01T04:07:16;-0.30;99.90
21563;DHT22;10942;47.894;11.424;2023-03-01T04:09:43;-0.30;99.90
21563;DHT22;10942;47.894;11.424;2023-03-01T04:12:09;-0.30;99.90
21563;DHT22;10942;47.894;11.424;2023-03-01T04:14:35;-0.20;99.90
21563;DHT22;10942;47.894;11.424;2023-03-01T04:17:01;-0.30;99.90
21563;DHT22;10942;47.894;11.424;2023-03-01T04:19:30;-0.30;99.90
21563;DHT22;10942;47.894;11.424;2023-03-01T04:22:02;-0.30;99.90
21563;DHT22;10942;47.894;11.424;2023-03-01T04:24:35;-0.30;99.90
21563;DHT22;10942;47.894;11.424;2023-03-01T04:27:01;-0.30;99.90
21563;DHT22;10942;47.894;11.424;2023-03-01T04:29:27;-0.40;99.90
21563;DHT22;10942;47.894;11.424;2023-03-01T04:31:53;-0.40;99.90
21563;DHT22;10942;47.894;11.424;2023-03-01T04:34:19;-0.40;99.90
21563;DHT22;10942;47.894;11.424;2023-03-01T04:36:45;-0.40;99.90
21563;DHT22;10942;47.894;11.424;2023-03-01T04:39:11;-0.30;99.90
21563;DHT22;10942;47.894;11.424;2023-03-01T04:41:40;-0.40;99.90
21563;DHT22;10942;47.894;11.424;2023-03-01T04:44:06;-0.40;99.90
21563;DHT22;10942;47.894;11.424;2023-03-01T04:46:32;-0.30;99.90
21563;DHT22;10942;47.894;11.424;2023-03-01T04:48:58;-0.40;99.90
21563;DHT22;10942;47.894;11.424;2023-03-01T04:51:24;-0.40;99.90
21563;DHT22;10942;47.894;11.424;2023-03-01T04:53:50;-0.40;99.90
21563;DHT22;10942;47.894;11.424;2023-03-01T04:56:16;-0.30;99.90
21563;DHT22;10942;47.894;11.424;2023-03-01T04:58:43;-0.40;99.90
21563;DHT22;10942;47.894;11.424;2023-03-01T05:01:15;-0.50;99.90
21563;DHT22;10942;47.894;11.424;2023-03-01T05:03:51;-0.60;99.90
21563;DHT22;10942;47.894;11.424;2023-03-01T05:06:18;-0.60;99.90
21563;DHT22;10942;47.894;11.424;2023-03-01T05:08:45;-0.50;99.90
21563;DHT22;10942;47.894;11.424;2023-03-01T05:11:10;-0.50;99.90
21563;DHT22;10942;47.894;11.424;2023-03-01T05:13:37;-0.50;99.90
21563;DHT22;10942;47.894;11.424;2023-03-01T05:16:05;-0.50;99.90
21563;DHT22;10942;47.894;11.424;2023-03-01T05:18:32;-0.40;99.90
21563;DHT22;10942;47.894;11.424;2023-03-01T05:23:30;-0.50;99.90
21563;DHT22;10942;47.894;11.424;2023-03-01T05:26:00;-0.50;99.90
21563;DHT22;10942;47.894;11.424;2023-03-01T05:28:27;-0.60;99.90
21563;DHT22;10942;47.894;11.424;2023-03-01T05:30:54;-0.50;99.90
21563;DHT22;10942;47.894;11.424;2023-03-01T05:33:20;-0.50;99.90
21563;DHT22;10942;47.894;11.424;2023-03-01T05:35:48;-0.50;99.90
21563;DHT22;10942;47.894;11.424;2023-03-01T05:38:15;-0.50;99.90
21563;DHT22;10942;47.894;11.424;2023-03-01T05:40:42;-0.50;99.90
21563;DHT22;10942;47.894;11.424;2023-03-01T05:43:12;-0.50;99.90
21563;DHT22;10942;47.894;11.424;2023-03-01T05:45:39;-0.50;99.90
21563;DHT22;10942;47.894;11.424;2023-03-01T05:48:07;-0.60;99.90
21563;DHT22;10942;47.894;11.424;2023-03-01T05:50:38;-0.60;99.90
21563;DHT22;10942;47.894;11.424;2023-03-01T05:53:19;-0.60;99.90
21563;DHT22;10942;47.894;11.424;2023-03-01T05:55:47;-0.70;99.90
21563;DHT22;10942;47.894;11.424;2023-03-01T05:58:16;-0.60;99.90
21563;DHT22;10942;47.894;11.424;2023-03-01T06:00:44;-0.60;99.90
21563;DHT22;10942;47.894;11.424;2023-03-01T06:03:14;-0.70;99.90
21563;DHT22;10942;47.894;11.424;2023-03-01T06:05:40;-0.70;99.90
21563;DHT22;10942;47.894;11.424;2023-03-01T06:08:06;-0.70;99.90
21563;DHT22;10942;47.894;11.424;2023-03-01T06:10:32;-0.70;99.90
21563;DHT22;10942;47.894;11.424;2023-03-01T06:12:58;-0.70;99.90
21563;DHT22;10942;47.894;11.424;2023-03-01T06:15:25;-0.70;99.90
21563;DHT22;10942;47.894;11.424;2023-03-01T06:17:51;-0.70;99.90
21563;DHT22;10942;47.894;11.424;2023-03-01T06:20:22;-0.70;99.90
21563;DHT22;10942;47.894;11.424;2023-03-01T06:22:48;-0.60;99.90
21563;DHT22;10942;47.894;11.424;2023-03-01T06:25:17;-0.70;99.90
21563;DHT22;10942;47.894;11.424;2023-03-01T06:27:44;-0.70;99.90
21563;DHT22;10942;47.894;11.424;2023-03-01T06:30:13;-0.70;99.90
21563;DHT22;10942;47.894;11.424;2023-03-01T06:32:40;-0.60;99.90
21563;DHT22;10942;47.894;11.424;2023-03-01T06:35:13;-0.60;99.90
21563;DHT22;10942;47.894;11.424;2023-03-01T06:37:41;-0.70;99.90
21563;DHT22;10942;47.894;11.424;2023-03-01T06:40:08;-0.70;99.90
21563;DHT22;10942;47.894;11.424;2023-03-01T06:42:42;-0.70;99.90
21563;DHT22;10942;47.894;11.424;2023-03-01T06:45:09;-0.70;99.90
21563;DHT22;10942;47.894;11.424;2023-03-01T06:47:35;-0.70;99.90
21563;DHT22;10942;47.894;11.424;2023-03-01T06:50:01;-0.70;99.90
21563;DHT22;10942;47.894;11.424;2023-03-01T06:52:27;-0.80;99.90
21563;DHT22;10942;47.894;11.424;2023-03-01T06:54:53;-0.80;99.90
21563;DHT22;10942;47.894;11.424;2023-03-01T06:57:18;-0.80;99.90
21563;DHT22;10942;47.894;11.424;2023-03-01T06:59:44;-0.80;99.90
21563;DHT22;10942;47.894;11.424;2023-03-01T07:02:13;-0.90;99.90
21563;DHT22;10942;47.894;11.424;2023-03-01T07:04:40;-0.90;99.90
21563;DHT22;10942;47.894;11.424;2023-03-01T07:07:06;-1.00;99.90
21563;DHT22;10942;47.894;11.424;2023-03-01T07:09:32;-1.00;99.90
21563;DHT22;10942;47.894;11.424;2023-03-01T07:11:58;-1.00;99.90
21563;DHT22;10942;47.894;11.424;2023-03-01T07:14:24;-1.00;99.90
21563;DHT22;10942;47.894;11.424;2023-03-01T07:16:54;-1.00;99.90
21563;DHT22;10942;47.894;11.424;2023-03-01T07:19:20;-1.00;99.90
21563;DHT22;10942;47.894;11.424;2023-03-01T07:21:46;-1.00;99.90
21563;DHT22;10942;47.894;11.424;2023-03-01T07:24:12;-1.00;99.90
21563;DHT22;10942;47.894;11.424;2023-03-01T07:26:38;-1.00;99.90
21563;DHT22;10942;47.894;11.424;2023-03-01T07:29:05;-1.00;99.90
21563;DHT22;10942;47.894;11.424;2023-03-01T07:31:32;-1.00;99.90
21563;DHT22;10942;47.894;11.424;2023-03-01T07:33:58;-1.00;99.90
21563;DHT22;10942;47.894;11.424;2023-03-01T07:36:24;-1.00;99.90
21563;DHT22;10942;47.894;11.424;2023-03-01T07:38:50;-0.90;99.90
21563;DHT22;10942;47.894;11.424;2023-03-01T07:41:15;-0.90;99.90
21563;DHT22;10942;47.894;11.424;2023-03-01T07:43:41;-0.90;99.90
21563;DHT22;10942;47.894;11.424;2023-03-01T07:46:07;-0.80;99.90
21563;DHT22;10942;47.894;11.424;2023-03-01T07:48:33;-0.90;99.90
21563;DHT22;10942;47.894;11.424;2023-03-01T07:51:04;-0.90;99.90
21563;DHT22;10942;47.894;11.424;2023-03-01T07:53:30;-0.80;99.90
21563;DHT22;10942;47.894;11.424;2023-03-01T07:56:01;-0.90;99.90
21563;DHT22;10942;47.894;11.424;2023-03-01T07:58:27;-0.90;99.90
21563;DHT22;10942;47.894;11.424;2023-03-01T08:00:53;-0.90;99.90
21563;DHT22;10942;47.894;11.424;2023-03-01T08:03:18;-0.80;99.90
21563;DHT22;10942;47.894;11.424;2023-03-01T08:05:44;-0.90;99.90
21563;DHT22;10942;47.894;11.424;2023-03-01T08:08:10;-0.80;99.90
21563;DHT22;10942;47.894;11.424;2023-03-01T08:10:36;-0.70;99.90
21563;DHT22;10942;47.894;11.424;2023-03-01T08:13:02;-0.70;99.90
21563;DHT22;10942;47.894;11.424;2023-03-01T08:15:27;-0.80;99.90
21563;DHT22;10942;47.894;11.424;2023-03-01T08:17:53;-0.70;99.90
21563;DHT22;10942;47.894;11.424;2023-03-01T08:20:19;-0.60;99.90
21563;DHT22;10942;47.894;11.424;2023-03-01T08:22:44;-0.50;99.90
21563;DHT22;10942;47.894;11.424;2023-03-01T08:25:10;-0.50;99.90
21563;DHT22;10942;47.894;11.424;2023-03-01T08:27:36;-0.40;99.90
21563;DHT22;10942;47.894;11.424;2023-03-01T08:30:02;-0.50;99.90
21563;DHT22;10942;47.894;11.424;2023-03-01T08:32:28;-0.50;99.90
21563;DHT22;10942;47.894;11.424;2023-03-01T08:34:53;-0.40;99.90
21563;DHT22;10942;47.894;11.424;2023-03-01T08:37:19;-0.40;99.90
21563;DHT22;10942;47.894;11.424;2023-03-01T08:39:45;-0.30;99.90
21563;DHT22;10942;47.894;11.424;2023-03-01T08:42:10;-0.30;99.90
21563;DHT22;10942;47.894;11.424;2023-03-01T08:44:36;-0.20;99.90
21563;DHT22;10942;47.894;11.424;2023-03-01T08:47:01;-0.30;99.90
21563;DHT22;10942;47.894;11.424;2023-03-01T08:49:28;-0.30;99.90
21563;DHT22;10942;47.894;11.424;2023-03-01T08:51:54;-0.20;99.90
21563;DHT22;10942;47.894;11.424;2023-03-01T08:54:21;-0.20;99.90
21563;DHT22;10942;47.894;11.424;2023-03-01T08:56:48;-0.20;99.90
21563;DHT22;10942;47.894;11.424;2023-03-01T08:59:15;-0.20;99.90
21563;DHT22;10942;47.894;11.424;2023-03-01T09:01:41;-0.10;99.90
21563;DHT22;10942;47.894;11.424;2023-03-01T09:04:11;0.10;99.90
21563;DHT22;10942;47.894;11.424;2023-03-01T09:06:37;0.20;99.90
21563;DHT22;10942;47.894;11.424;2023-03-01T09:09:03;0.20;99.90
21563;DHT22;10942;47.894;11.424;2023-03-01T09:11:30;0.20;99.90
21563;DHT22;10942;47.894;11.424;2023-03-01T09:13:56;0.20;99.90
21563;DHT22;10942;47.894;11.424;2023-03-01T09:16:22;0.30;99.90
21563;DHT22;10942;47.894;11.424;2023-03-01T09:18:54;0.30;99.90
21563;DHT22;10942;47.894;11.424;2023-03-01T09:21:22;0.20;99.90
21563;DHT22;10942;47.894;11.424;2023-03-01T09:23:48;0.20;99.90
21563;DHT22;10942;47.894;11.424;2023-03-01T09:26:18;0.30;99.90
21563;DHT22;10942;47.894;11.424;2023-03-01T09:28:45;0.50;99.90
21563;DHT22;10942;47.894;11.424;2023-03-01T09:31:12;0.60;99.90
21563;DHT22;10942;47.894;11.424;2023-03-01T09:33:39;0.60;99.90
21563;DHT22;10942;47.894;11.424;2023-03-01T09:36:12;0.60;99.90
21563;DHT22;10942;47.894;11.424;2023-03-01T09:38:38;0.60;99.90
21563;DHT22;10942;47.894;11.424;2023-03-01T09:44:00;0.80;99.90
21563;DHT22;10942;47.894;11.424;2023-03-01T09:46:30;0.70;99.90
21563;DHT22;10942;47.894;11.424;2023-03-01T09:49:02;0.70;99.90
21563;DHT22;10942;47.894;11.424;2023-03-01T09:51:33;0.80;99.90
21563;DHT22;10942;47.894;11.424;2023-03-01T09:54:02;0.80;99.90
21563;DHT22;10942;47.894;11.424;2023-03-01T09:56:41;0.80;99.90
21563;DHT22;10942;47.894;11.424;2023-03-01T10:04:45;1.00;99.90
21563;DHT22;10942;47.894;11.424;2023-03-01T10:07:38;0.90;99.90
21563;DHT22;10942;47.894;11.424;2023-03-01T10:10:07;1.00;99.90
21563;DHT22;10942;47.894;11.424;2023-03-01T10:12:37;1.00;99.90
21563;DHT22;10942;47.894;11.424;2023-03-01T10:15:18;1.10;99.90
21563;DHT22;10942;47.894;11.424;2023-03-01T10:18:19;1.10;99.90
21563;DHT22;10942;47.894;11.424;2023-03-01T10:20:59;1.00;99.90
21563;DHT22;10942;47.894;11.424;2023-03-01T10:23:25;0.90;99.90
21563;DHT22;10942;47.894;11.424;2023-03-01T10:25:59;0.80;99.90
21563;DHT22;10942;47.894;11.424;2023-03-01T10:31:00;0.80;99.90
21563;DHT22;10942;47.894;11.424;2023-03-01T10:33:44;0.70;99.90
21563;DHT22;10942;47.894;11.424;2023-03-01T10:36:09;0.80;99.90
21563;DHT22;10942;47.894;11.424;2023-03-01T10:38:54;0.90;99.90
21563;DHT22;10942;47.894;11.424;2023-03-01T10:41:21;0.90;99.90
21563;DHT22;10942;47.894;11.424;2023-03-01T10:43:56;0.80;99.90
21563;DHT22;10942;47.894;11.424;2023-03-01T10:46:26;0.80;99.90
21563;DHT22;10942;47.894;11.424;2023-03-01T10:51:41;1.10;99.90
21563;DHT22;10942;47.894;11.424;2023-03-01T10:54:21;1.10;99.90
21563;DHT22;10942;47.894;11.424;2023-03-01T10:56:53;1.20;99.90
21563;DHT22;10942;47.894;11.424;2023-03-01T10:59:31;0.90;99.90
21563;DHT22;10942;47.894;11.424;2023-03-01T11:04:35;1.10;99.90
21563;DHT22;10942;47.894;11.424;2023-03-01T11:07:02;1.00;99.90
21563;DHT22;10942;47.894;11.424;2023-03-01T11:09:32;1.10;99.90
21563;DHT22;10942;47.894;11.424;2023-03-01T11:12:04;1.20;99.90
21563;DHT22;10942;47.894;11.424;2023-03-01T11:14:39;1.30;99.90
21563;DHT22;10942;47.894;11.424;2023-03-01T11:17:12;1.20;99.90
21563;DHT22;10942;47.894;11.424;2023-03-01T11:19:39;1.30;99.90
21563;DHT22;10942;47.894;11.424;2023-03-01T11:22:18;1.20;99.90
21563;DHT22;10942;47.894;11.424;2023-03-01T11:24:53;1.30;99.90
21563;DHT22;10942;47.894;11.424;2023-03-01T11:27:24;1.20;99.90
21563;DHT22;10942;47.894;11.424;2023-03-01T11:32:50;1.20;99.90
21563;DHT22;10942;47.894;11.424;2023-03-01T11:35:24;1.30;99.90
21563;DHT22;10942;47.894;11.424;2023-03-01T11:40:37;1.50;99.90
21563;DHT22;10942;47.894;11.424;2023-03-01T11:43:42;1.50;99.90
21563;DHT22;10942;47.894;11.424;2023-03-01T11:57:26;1.40;99.90
21563;DHT22;10942;47.894;11.424;2023-03-01T12:03:32;1.40;99.90
21563;DHT22;10942;47.894;11.424;2023-03-01T12:11:41;1.30;99.90
21563;DHT22;10942;47.894;11.424;2023-03-01T12:25:31;1.30;99.90
21563;DHT22;10942;47.894;11.424;2023-03-01T12:38:41;1.40;99.90
21563;DHT22;10942;47.894;11.424;2023-03-01T12:43:54;1.40;99.90
21563;DHT22;10942;47.894;11.424;2023-03-01T12:49:37;1.50;99.90
21563;DHT22;10942;47.894;11.424;2023-03-01T12:54:55;1.30;99.90
21563;DHT22;10942;47.894;11.424;2023-03-01T12:57:34;1.30;99.90
21563;DHT22;10942;47.894;11.424;2023-03-01T13:02:49;1.30;99.90
21563;DHT22;10942;47.894;11.424;2023-03-01T13:05:39;1.30;99.90
21563;DHT22;10942;47.894;11.424;2023-03-01T13:08:16;1.40;99.90
21563;DHT22;10942;47.894;11.424;2023-03-01T13:10:53;1.30;99.90
21563;DHT22;10942;47.894;11.424;2023-03-01T13:13:23;1.40;99.90
21563;DHT22;10942;47.894;11.424;2023-03-01T13:15:50;1.40;99.90
21563;DHT22;10942;47.894;11.424;2023-03-01T13:20:45;1.70;99.90
21563;DHT22;10942;47.894;11.424;2023-03-01T13:26:15;1.70;99.90
21563;DHT22;10942;47.894;11.424;2023-03-01T13:31:56;1.90;99.90
21563;DHT22;10942;47.894;11.424;2023-03-01T13:34:00;1.90;99.90
21563;DHT22;10942;47.894;11.424;2023-03-01T13:41:56;2.20;99.90
21563;DHT22;10942;47.894;11.424;2023-03-01T13:47:08;2.50;99.90
21563;DHT22;10942;47.894;11.424;2023-03-01T13:49:47;2.60;99.90
21563;DHT22;10942;47.894;11.424;2023-03-01T13:52:32;2.60;99.90
21563;DHT22;10942;47.894;11.424;2023-03-01T13:55:00;2.40;99.90
21563;DHT22;10942;47.894;11.424;2023-03-01T13:57:33;2.50;99.90
21563;DHT22;10942;47.894;11.424;2023-03-01T13:59:59;2.40;99.90
21563;DHT22;10942;47.894;11.424;2023-03-01T14:02:25;2.30;99.90
21563;DHT22;10942;47.894;11.424;2023-03-01T14:05:00;2.30;99.90
21563;DHT22;10942;47.894;11.424;2023-03-01T14:07:28;2.40;99.90
21563;DHT22;10942;47.894;11.424;2023-03-01T14:10:05;2.30;99.90
21563;DHT22;10942;47.894;11.424;2023-03-01T14:12:38;2.40;99.90
21563;DHT22;10942;47.894;11.424;2023-03-01T14:15:36;2.30;99.90
21563;DHT22;10942;47.894;11.424;2023-03-01T14:18:23;2.40;99.90
21563;DHT22;10942;47.894;11.424;2023-03-01T14:20:51;2.30;99.90
21563;DHT22;10942;47.894;11.424;2023-03-01T14:23:22;2.20;99.90
21563;DHT22;10942;47.894;11.424;2023-03-01T14:25:53;2.20;99.90
21563;DHT22;10942;47.894;11.424;2023-03-01T14:28:28;2.30;99.90
21563;DHT22;10942;47.894;11.424;2023-03-01T14:31:02;2.40;99.90
21563;DHT22;10942;47.894;11.424;2023-03-01T14:33:34;2.40;99.90
21563;DHT22;10942;47.894;11.424;2023-03-01T14:36:09;2.40;99.90
21563;DHT22;10942;47.894;11.424;2023-03-01T14:38:44;2.40;99.90
21563;DHT22;10942;47.894;11.424;2023-03-01T14:41:21;2.40;99.90
21563;DHT22;10942;47.894;11.424;2023-03-01T14:43:55;2.30;99.90
21563;DHT22;10942;47.894;11.424;2023-03-01T14:46:28;2.30;99.90
21563;DHT22;10942;47.894;11.424;2023-03-01T14:49:04;2.40;99.90
21563;DHT22;10942;47.894;11.424;2023-03-01T14:51:35;2.50;99.90
21563;DHT22;10942;47.894;11.424;2023-03-01T14:54:01;2.50;99.90
21563;DHT22;10942;47.894;11.424;2023-03-01T14:56:27;2.40;99.90
21563;DHT22;10942;47.894;11.424;2023-03-01T14:59:09;2.50;99.90
21563;DHT22;10942;47.894;11.424;2023-03-01T15:01:35;2.40;99.90
21563;DHT22;10942;47.894;11.424;2023-03-01T15:04:01;2.40;99.90
21563;DHT22;10942;47.894;11.424;2023-03-01T15:06:27;2.40;99.90
21563;DHT22;10942;47.894;11.424;2023-03-01T15:08:54;2.40;99.90
21563;DHT22;10942;47.894;11.424;2023-03-01T15:11:32;2.40;99.90
21563;DHT22;10942;47.894;11.424;2023-03-01T15:13:59;2.30;99.90
21563;DHT22;10942;47.894;11.424;2023-03-01T15:16:31;2.30;99.90
21563;DHT22;10942;47.894;11.424;2023-03-01T15:19:00;2.30;99.90
21563;DHT22;10942;47.894;11.424;2023-03-01T15:21:35;2.30;99.90
21563;DHT22;10942;47.894;11.424;2023-03-01T15:24:34;2.30;99.90
21563;DHT22;10942;47.894;11.424;2023-03-01T15:27:01;2.30;99.90
21563;DHT22;10942;47.894;11.424;2023-03-01T15:29:33;2.40;99.90
21563;DHT22;10942;47.894;11.424;2023-03-01T15:32:30;2.40;99.90
21563;DHT22;10942;47.894;11.424;2023-03-01T15:34:58;2.40;99.90
21563;DHT22;10942;47.894;11.424;2023-03-01T15:37:43;2.40;99.90
21563;DHT22;10942;47.894;11.424;2023-03-01T15:40:28;2.40;99.90
21563;DHT22;10942;47.894;11.424;2023-03-01T15:43:01;2.40;99.90
21563;DHT22;10942;47.894;11.424;2023-03-01T15:45:29;2.40;99.90
21563;DHT22;10942;47.894;11.424;2023-03-01T15:48:01;2.40;99.90
21563;DHT22;10942;47.894;11.424;2023-03-01T15:50:33;2.30;99.90
21563;DHT22;10942;47.894;11.424;2023-03-01T15:53:01;2.30;99.90
21563;DHT22;10942;47.894;11.424;2023-03-01T15:55:31;2.30;99.90
21563;DHT22;10942;47.894;11.424;2023-03-01T16:00:40;2.30;99.90
21563;DHT22;10942;47.894;11.424;2023-03-01T16:03:06;2.30;99.90
21563;DHT22;10942;47.894;11.424;2023-03-01T16:05:35;2.30;99.90
21563;DHT22;10942;47.894;11.424;2023-03-01T16:08:02;2.20;99.90
21563;DHT22;10942;47.894;11.424;2023-03-01T16:10:29;2.20;99.90
21563;DHT22;10942;47.894;11.424;2023-03-01T16:12:55;2.20;99.90
21563;DHT22;10942;47.894;11.424;2023-03-01T16:17:51;2.20;99.90
21563;DHT22;10942;47.894;11.424;2023-03-01T16:20:23;2.10;99.90
21563;DHT22;10942;47.894;11.424;2023-03-01T16:22:49;2.10;99.90
21563;DHT22;10942;47.894;11.424;2023-03-01T16:25:16;2.10;99.90
21563;DHT22;10942;47.894;11.424;2023-03-01T16:27:47;2.00;99.90
21563;DHT22;10942;47.894;11.424;2023-03-01T16:30:15;2.00;99.90
21563;DHT22;10942;47.894;11.424;2023-03-01T16:32:43;2.00;99.90
21563;DHT22;10942;47.894;11.424;2023-03-01T16:35:12;1.90;99.90
21563;DHT22;10942;47.894;11.424;2023-03-01T16:37:38;1.90;99.90
21563;DHT22;10942;47.894;11.424;2023-03-01T16:40:06;1.90;99.90
21563;DHT22;10942;47.894;11.424;2023-03-01T16:42:36;1.80;99.90
21563;DHT22;10942;47.894;11.424;2023-03-01T16:45:06;1.80;99.90
21563;DHT22;10942;47.894;11.424;2023-03-01T16:47:33;1.80;99.90
21563;DHT22;10942;47.894;11.424;2023-03-01T16:49:59;1.80;99.90
21563;DHT22;10942;47.894;11.424;2023-03-01T16:52:25;1.60;99.90
21563;DHT22;10942;47.894;11.424;2023-03-01T16:54:51;1.60;99.90
21563;DHT22;10942;47.894;11.424;2023-03-01T16:57:16;1.50;99.90
21563;DHT22;10942;47.894;11.424;2023-03-01T16:59:42;1.50;99.90
21563;DHT22;10942;47.894;11.424;2023-03-01T17:02:12;1.40;99.90
21563;DHT22;10942;47.894;11.424;2023-03-01T17:04:40;1.40;99.90
21563;DHT22;10942;47.894;11.424;2023-03-01T17:07:06;1.30;99.90
21563;DHT22;10942;47.894;11.424;2023-03-01T17:09:38;1.30;99.90
21563;DHT22;10942;47.894;11.424;2023-03-01T17:12:04;1.20;99.90
21563;DHT22;10942;47.894;11.424;2023-03-01T17:14:30;1.10;99.90
21563;DHT22;10942;47.894;11.424;2023-03-01T17:16:55;1.10;99.90
21563;DHT22;10942;47.894;11.424;2023-03-01T17:19:21;1.10;99.90
21563;DHT22;10942;47.894;11.424;2023-03-01T17:21:47;1.10;99.90
21563;DHT22;10942;47.894;11.424;2023-03-01T17:24:13;1.00;99.90
21563;DHT22;10942;47.894;11.424;2023-03-01T17:26:39;1.00;99.90
21563;DHT22;10942;47.894;11.424;2023-03-01T17:29:05;0.90;99.90